Time;durP1;ratioP1;P1;durP2;ratioP2;P2;SDS_P1;SDS_P2;PMS_P1;PMS_P2;Temp;Humidity;BMP_temperature;BMP_pressure;BME280_temperature;BME280_humidity;BME280_pressure;Samples;Min_cycle;Max_cycle;Signal;HPM_P1;HPM_P2
2023/09/26 00:01:19;;;;;;;8.00;5.95;;;17.40;71.10;;;;;;5003964;28;20133;-73
2023/09/26 00:03:46;;;;;;;8.02;5.35;;;17.40;71.20;;;;;;5016810;28;20061;-73
2023/09/26 00:06:20;;;;;;;8.82;5.93;;;17.40;71.20;;;;;;5009190;28;20057;-74
2023/09/26 00:08:47;;;;;;;9.70;5.82;;;17.40;71.40;;;;;;5026281;28;20455;-74
2023/09/26 00:11:16;;;;;;;9.00;5.83;;;17.40;71.30;;;;;;5025640;28;20474;-74
2023/09/26 00:13:43;;;;;;;7.85;5.20;;;17.40;71.20;;;;;;4992954;28;20042;-73
2023/09/26 00:16:10;;;;;;;9.27;5.80;;;17.40;70.80;;;;;;5008853;28;20069;-73
2023/09/26 00:18:40;;;;;;;8.75;5.55;;;17.40;71.00;;;;;;5026770;28;20054;-74
2023/09/26 00:21:07;;;;;;;7.65;5.18;;;17.40;71.30;;;;;;5008137;28;20077;-74
2023/09/26 00:23:35;;;;;;;7.57;5.30;;;17.40;71.20;;;;;;5007258;28;20457;-74
2023/09/26 00:26:04;;;;;;;9.85;5.47;;;17.40;71.40;;;;;;5007698;28;20440;-74
2023/09/26 00:28:30;;;;;;;7.40;5.32;;;17.40;71.40;;;;;;5019632;28;20042;-74
2023/09/26 00:31:03;;;;;;;7.15;4.80;;;17.40;71.50;;;;;;4975259;28;20051;-74
2023/09/26 00:33:30;;;;;;;7.22;4.75;;;17.30;71.10;;;;;;5010707;28;20428;-73
2023/09/26 00:36:05;;;;;;;7.77;5.10;;;17.40;71.20;;;;;;5011017;28;20141;-73
2023/09/26 00:38:33;;;;;;;8.30;5.45;;;17.30;71.60;;;;;;4992960;28;20058;-74
2023/09/26 00:41:00;;;;;;;8.48;5.47;;;17.30;71.50;;;;;;4976101;28;20046;-74
2023/09/26 00:43:26;;;;;;;9.07;4.78;;;17.40;71.50;;;;;;4992830;28;20053;-73
2023/09/26 00:45:56;;;;;;;8.80;5.40;;;17.40;71.90;;;;;;5008093;28;20050;-74
2023/09/26 00:48:25;;;;;;;7.70;4.93;;;17.40;72.00;;;;;;5009124;28;20060;-74
2023/09/26 00:50:52;;;;;;;8.48;5.25;;;17.30;71.80;;;;;;4992746;28;20835;-73
2023/09/26 00:53:21;;;;;;;7.20;5.05;;;17.30;71.70;;;;;;5009460;28;20090;-73
2023/09/26 00:55:50;;;;;;;6.93;4.57;;;17.30;71.70;;;;;;5007578;28;20564;-74
2023/09/26 00:58:18;;;;;;;9.95;5.30;;;17.30;72.20;;;;;;4996026;28;20508;-74
2023/09/26 01:00:46;;;;;;;9.07;5.27;;;17.30;72.30;;;;;;5011669;28;20053;-73
2023/09/26 01:03:13;;;;;;;8.48;5.28;;;17.20;72.20;;;;;;4989707;28;20153;-74
2023/09/26 01:05:40;;;;;;;8.70;5.50;;;17.20;72.20;;;;;;4992390;28;20042;-73
2023/09/26 01:08:07;;;;;;;7.25;5.18;;;17.20;72.10;;;;;;4975736;28;20509;-74
2023/09/26 01:10:37;;;;;;;7.38;5.47;;;17.20;72.00;;;;;;4992120;28;20067;-73
2023/09/26 01:13:05;;;;;;;7.60;5.70;;;17.20;72.10;;;;;;5012880;28;20171;-73
2023/09/26 01:15:36;;;;;;;7.15;5.25;;;17.20;71.70;;;;;;4992305;28;20137;-74
2023/09/26 01:18:04;;;;;;;8.60;5.70;;;17.20;71.50;;;;;;5007842;28;20109;-74
2023/09/26 01:20:31;;;;;;;8.40;5.40;;;17.20;71.50;;;;;;4997485;28;20561;-74
2023/09/26 01:23:02;;;;;;;6.93;5.20;;;17.20;71.80;;;;;;5011633;28;20049;-74
2023/09/26 01:25:30;;;;;;;9.10;5.53;;;17.20;71.80;;;;;;5028010;28;20049;-74
2023/09/26 01:28:01;;;;;;;8.73;5.80;;;17.20;71.90;;;;;;5029888;28;20583;-74
2023/09/26 01:30:28;;;;;;;8.43;5.78;;;17.10;71.80;;;;;;5011095;28;20131;-74
2023/09/26 01:32:55;;;;;;;7.03;5.18;;;17.10;71.80;;;;;;5011760;28;20049;-73
2023/09/26 01:35:21;;;;;;;8.52;5.65;;;17.10;71.80;;;;;;5007296;28;20060;-74
2023/09/26 01:37:50;;;;;;;9.23;6.07;;;17.00;71.70;;;;;;4974914;28;20057;-73
2023/09/26 01:40:17;;;;;;;7.53;5.28;;;17.00;71.60;;;;;;4990831;28;20050;-74
2023/09/26 01:42:45;;;;;;;7.68;5.47;;;17.00;71.50;;;;;;4991806;28;20888;-74
2023/09/26 01:45:12;;;;;;;8.57;5.72;;;17.00;71.50;;;;;;4991700;28;20105;-73
2023/09/26 01:47:45;;;;;;;7.43;5.43;;;17.00;71.30;;;;;;5003605;28;20536;-74
2023/09/26 01:50:12;;;;;;;8.02;5.90;;;17.00;71.30;;;;;;5007647;28;20053;-74
2023/09/26 01:52:39;;;;;;;8.38;5.70;;;17.00;71.30;;;;;;4989958;28;20540;-74
2023/09/26 01:55:09;;;;;;;8.15;5.55;;;17.00;71.50;;;;;;4979858;28;20042;-74
2023/09/26 01:57:36;;;;;;;8.32;5.65;;;17.00;71.50;;;;;;5009791;28;20042;-74
2023/09/26 02:00:10;;;;;;;8.00;5.33;;;17.00;71.50;;;;;;5009164;28;20057;-74
2023/09/26 02:02:39;;;;;;;7.68;5.68;;;17.00;71.40;;;;;;5027465;28;20064;-74
2023/09/26 02:05:08;;;;;;;8.60;5.88;;;17.00;71.50;;;;;;5011005;28;20504;-74
2023/09/26 02:07:34;;;;;;;9.05;5.95;;;17.00;71.70;;;;;;5011216;28;20046;-74
2023/09/26 02:10:03;;;;;;;8.60;6.20;;;16.90;71.50;;;;;;5021623;28;20046;-74
2023/09/26 02:12:31;;;;;;;8.37;5.50;;;16.90;71.70;;;;;;5008030;28;20054;-74
2023/09/26 02:15:00;;;;;;;9.18;5.90;;;16.90;71.80;;;;;;5007456;28;20050;-73
2023/09/26 02:17:29;;;;;;;10.52;5.97;;;16.90;71.60;;;;;;4991574;28;20168;-74
2023/09/26 02:19:57;;;;;;;8.07;5.70;;;16.90;71.80;;;;;;4995772;28;20515;-74
2023/09/26 02:22:24;;;;;;;8.00;5.70;;;16.90;71.70;;;;;;5000810;28;20098;-73
2023/09/26 02:24:52;;;;;;;8.57;5.33;;;16.90;71.70;;;;;;4999236;28;20121;-74
2023/09/26 02:27:20;;;;;;;8.82;5.97;;;16.80;71.80;;;;;;4974822;28;20054;-74
2023/09/26 02:29:47;;;;;;;10.93;5.90;;;16.80;71.90;;;;;;4981565;28;20833;-74
2023/09/26 02:32:14;;;;;;;8.43;5.72;;;16.80;71.70;;;;;;5010719;28;20045;-74
2023/09/26 02:34:42;;;;;;;9.18;6.10;;;16.80;71.80;;;;;;5010665;28;20046;-74
2023/09/26 02:37:10;;;;;;;8.63;6.50;;;16.80;71.70;;;;;;5028796;28;20057;-73
2023/09/26 02:39:37;;;;;;;8.32;6.03;;;16.80;71.60;;;;;;5010269;28;20565;-74
2023/09/26 02:42:04;;;;;;;9.60;6.60;;;16.70;71.60;;;;;;5028249;28;20104;-74
2023/09/26 02:44:31;;;;;;;9.57;6.68;;;16.70;71.50;;;;;;4994179;28;20546;-74
2023/09/26 02:46:58;;;;;;;9.30;6.88;;;16.70;71.50;;;;;;5000290;28;20421;-74
2023/09/26 02:49:25;;;;;;;8.67;6.83;;;16.70;71.50;;;;;;4974363;28;20050;-73
2023/09/26 02:51:54;;;;;;;9.45;6.75;;;16.70;71.40;;;;;;5007927;28;20112;-74
2023/09/26 02:54:21;;;;;;;10.70;7.03;;;16.70;71.40;;;;;;4973991;28;20046;-74
2023/09/26 02:56:48;;;;;;;11.52;6.88;;;16.70;71.30;;;;;;4999542;28;20047;-74
2023/09/26 02:59:15;;;;;;;8.70;6.32;;;16.70;71.30;;;;;;4990657;28;20503;-74
2023/09/26 03:01:42;;;;;;;9.80;6.50;;;16.60;71.40;;;;;;4993528;28;20077;-73
2023/09/26 03:04:09;;;;;;;10.05;6.57;;;16.60;71.40;;;;;;4998929;28;20073;-73
2023/09/26 03:06:36;;;;;;;10.77;6.70;;;16.60;71.30;;;;;;4993601;28;20052;-74
2023/09/26 03:09:04;;;;;;;9.65;6.63;;;16.60;71.20;;;;;;5028549;28;20484;-73
2023/09/26 03:11:32;;;;;;;9.43;6.70;;;16.60;71.10;;;;;;5010243;28;20050;-74
2023/09/26 03:13:59;;;;;;;9.00;6.00;;;16.60;71.00;;;;;;4993664;28;20050;-73
2023/09/26 03:16:26;;;;;;;10.02;6.32;;;16.50;71.10;;;;;;4993746;28;20046;-74
2023/09/26 03:18:55;;;;;;;9.27;6.70;;;16.50;71.10;;;;;;5009918;28;20185;-73
2023/09/26 03:21:22;;;;;;;9.52;6.70;;;16.50;71.20;;;;;;5015872;28;20081;-73
2023/09/26 03:23:50;;;;;;;10.20;6.75;;;16.40;71.20;;;;;;4993682;28;20050;-74
2023/09/26 03:26:18;;;;;;;9.37;6.67;;;16.40;71.20;;;;;;5009652;28;20125;-73
2023/09/26 03:28:45;;;;;;;9.20;6.97;;;16.40;71.20;;;;;;5006769;28;20489;-74
2023/09/26 03:31:12;;;;;;;9.32;7.25;;;16.40;71.10;;;;;;5007465;28;20077;-74
2023/09/26 03:33:39;;;;;;;9.25;6.55;;;16.40;70.80;;;;;;4989869;28;20501;-73
2023/09/26 03:36:07;;;;;;;10.15;7.35;;;16.40;70.80;;;;;;5007681;28;20046;-74
2023/09/26 03:38:34;;;;;;;8.43;6.50;;;16.40;70.80;;;;;;5006808;28;20085;-73
2023/09/26 03:41:02;;;;;;;10.02;7.10;;;16.30;70.80;;;;;;4973695;28;20057;-74
2023/09/26 03:43:31;;;;;;;10.27;6.80;;;16.30;70.80;;;;;;5006559;28;20141;-74
2023/09/26 03:46:02;;;;;;;10.65;7.00;;;16.20;70.80;;;;;;5007700;28;20064;-73
2023/09/26 03:48:30;;;;;;;9.77;7.03;;;16.20;70.80;;;;;;5007100;28;20054;-73
2023/09/26 03:50:57;;;;;;;10.00;6.27;;;16.20;70.90;;;;;;5021600;28;20125;-73
2023/09/26 03:53:24;;;;;;;10.45;7.00;;;16.10;71.00;;;;;;4990390;28;20471;-74
2023/09/26 03:55:54;;;;;;;9.52;7.20;;;16.10;70.90;;;;;;4996531;28;20069;-74
2023/09/26 03:58:21;;;;;;;11.35;7.65;;;16.10;70.90;;;;;;5007742;28;20054;-74
2023/09/26 04:00:50;;;;;;;10.45;7.15;;;16.00;70.80;;;;;;5007665;28;20166;-73
2023/09/26 04:03:17;;;;;;;10.97;7.00;;;16.00;70.70;;;;;;5022856;28;20057;-74
2023/09/26 04:05:46;;;;;;;9.63;6.40;;;16.00;70.70;;;;;;5010566;28;20427;-73
2023/09/26 04:08:15;;;;;;;11.27;7.70;;;16.00;70.60;;;;;;4993434;28;20042;-74
2023/09/26 04:10:42;;;;;;;11.27;7.70;;;16.00;70.50;;;;;;5009490;28;20582;-73
2023/09/26 04:13:09;;;;;;;10.27;7.32;;;16.00;70.40;;;;;;5009409;28;20058;-74
2023/09/26 04:15:38;;;;;;;10.93;7.80;;;15.90;70.30;;;;;;5010687;28;20065;-74
2023/09/26 04:18:06;;;;;;;9.95;7.13;;;15.90;70.40;;;;;;4993074;28;20133;-73
2023/09/26 04:20:36;;;;;;;13.65;7.55;;;15.80;70.50;;;;;;5010891;28;20133;-73
2023/09/26 04:23:03;;;;;;;9.88;7.28;;;15.80;70.60;;;;;;5015420;28;20066;-74
2023/09/26 04:25:31;;;;;;;10.13;7.45;;;15.80;70.50;;;;;;5027254;28;20048;-73
2023/09/26 04:27:58;;;;;;;11.23;8.00;;;15.70;70.50;;;;;;5002516;28;20114;-73
2023/09/26 04:30:25;;;;;;;9.88;7.47;;;15.60;70.50;;;;;;5005345;28;20061;-73
2023/09/26 04:32:52;;;;;;;11.40;8.30;;;15.60;70.50;;;;;;5021599;28;20058;-74
2023/09/26 04:35:20;;;;;;;11.90;8.75;;;15.60;70.50;;;;;;5010694;28;20061;-73
2023/09/26 04:37:47;;;;;;;12.23;8.68;;;15.60;70.50;;;;;;5010494;28;20050;-74
2023/09/26 04:40:14;;;;;;;11.47;8.87;;;15.50;70.50;;;;;;5008983;28;20056;-74
2023/09/26 04:42:43;;;;;;;9.95;7.97;;;15.50;70.40;;;;;;4992497;28;20057;-73
2023/09/26 04:45:10;;;;;;;11.20;8.15;;;15.50;70.50;;;;;;4993116;28;20394;-73
2023/09/26 04:47:37;;;;;;;11.88;7.90;;;15.50;70.60;;;;;;5008279;28;20489;-73
2023/09/26 04:50:05;;;;;;;11.25;7.85;;;15.40;70.60;;;;;;4992518;28;20054;-74
2023/09/26 04:52:33;;;;;;;10.87;7.80;;;15.40;70.60;;;;;;5010700;28;20089;-73
2023/09/26 04:55:01;;;;;;;9.73;7.43;;;15.40;70.60;;;;;;4992552;28;20137;-74
2023/09/26 04:57:28;;;;;;;10.45;7.82;;;15.40;70.70;;;;;;4992734;28;20603;-73
2023/09/26 04:59:55;;;;;;;10.25;7.60;;;15.40;70.60;;;;;;5010298;28;20867;-73
2023/09/26 05:02:22;;;;;;;9.82;7.70;;;15.30;70.70;;;;;;5020035;28;20054;-73
2023/09/26 05:04:49;;;;;;;11.00;7.97;;;15.30;70.70;;;;;;5000790;28;20041;-73
2023/09/26 05:07:16;;;;;;;11.60;8.30;;;15.30;70.80;;;;;;5003206;28;20046;-74
2023/09/26 05:09:45;;;;;;;11.13;8.23;;;15.20;71.00;;;;;;5016607;28;20062;-73
2023/09/26 05:12:12;;;;;;;11.20;8.07;;;15.20;71.10;;;;;;5023233;28;20519;-73
2023/09/26 05:14:39;;;;;;;11.13;9.10;;;15.10;71.20;;;;;;5002266;28;20057;-74
2023/09/26 05:17:06;;;;;;;12.40;8.63;;;15.10;71.30;;;;;;5008574;28;20057;-73
2023/09/26 05:19:33;;;;;;;12.43;8.85;;;15.00;71.40;;;;;;5021584;28;20056;-74
2023/09/26 05:22:00;;;;;;;11.27;8.20;;;15.00;71.40;;;;;;5010878;28;20064;-74
2023/09/26 05:24:26;;;;;;;11.45;8.38;;;15.00;71.40;;;;;;5007547;28;20046;-73
2023/09/26 05:26:55;;;;;;;11.05;8.55;;;15.00;71.40;;;;;;5021366;28;20057;-74
2023/09/26 05:29:22;;;;;;;11.83;8.57;;;15.00;71.50;;;;;;5004781;28;20525;-73
2023/09/26 05:31:48;;;;;;;10.82;8.32;;;14.90;71.60;;;;;;5024223;28;20064;-74
2023/09/26 05:34:15;;;;;;;11.32;8.70;;;14.90;71.60;;;;;;5011526;28;20050;-73
2023/09/26 05:36:42;;;;;;;12.98;9.02;;;14.90;71.50;;;;;;5000921;28;20054;-73
2023/09/26 05:39:09;;;;;;;10.98;8.30;;;14.90;71.60;;;;;;5018758;28;20125;-73
2023/09/26 05:41:36;;;;;;;12.10;8.50;;;14.90;71.50;;;;;;5019566;28;20120;-74
2023/09/26 05:44:05;;;;;;;12.57;8.68;;;14.80;71.60;;;;;;5016542;28;20109;-74
2023/09/26 05:46:32;;;;;;;12.88;8.77;;;14.80;71.70;;;;;;5012481;28;21050;-74
2023/09/26 05:48:59;;;;;;;13.65;9.40;;;14.80;71.70;;;;;;4998923;28;20130;-74
2023/09/26 05:51:26;;;;;;;12.30;9.20;;;14.80;71.80;;;;;;5002521;28;20144;-75
2023/09/26 05:53:53;;;;;;;12.87;9.27;;;14.70;71.80;;;;;;5015803;28;20053;-74
2023/09/26 05:56:20;;;;;;;14.40;9.15;;;14.70;71.90;;;;;;5003187;28;20050;-74
2023/09/26 05:58:49;;;;;;;13.65;9.45;;;14.70;71.90;;;;;;5022839;28;20082;-75
2023/09/26 06:01:17;;;;;;;12.38;8.95;;;14.70;72.00;;;;;;5001675;28;20058;-74
2023/09/26 06:03:44;;;;;;;11.38;8.65;;;14.70;72.10;;;;;;5000870;28;20061;-74
2023/09/26 06:06:11;;;;;;;11.70;8.30;;;14.70;72.10;;;;;;4998352;28;20054;-75
2023/09/26 06:08:38;;;;;;;13.02;8.10;;;14.70;72.20;;;;;;5000639;28;20042;-74
2023/09/26 06:11:07;;;;;;;11.80;8.32;;;14.70;72.10;;;;;;4998392;28;20628;-74
2023/09/26 06:13:34;;;;;;;11.50;8.07;;;14.60;72.20;;;;;;4999794;28;20101;-74
2023/09/26 06:16:05;;;;;;;12.32;8.70;;;14.60;72.30;;;;;;4999239;28;20814;-75
2023/09/26 06:18:33;;;;;;;12.03;8.33;;;14.60;72.50;;;;;;5010523;28;20050;-74
2023/09/26 06:21:04;;;;;;;13.57;8.43;;;14.60;72.50;;;;;;4997581;28;20061;-74
2023/09/26 06:23:32;;;;;;;11.95;8.52;;;14.60;72.60;;;;;;4998555;28;20061;-74
2023/09/26 06:26:00;;;;;;;10.98;7.78;;;14.60;72.70;;;;;;4997115;28;20647;-74
2023/09/26 06:28:28;;;;;;;11.85;7.80;;;14.50;72.70;;;;;;5003564;28;20055;-74
2023/09/26 06:30:56;;;;;;;13.00;8.47;;;14.50;72.80;;;;;;5017504;28;20046;-74
2023/09/26 06:33:23;;;;;;;10.18;8.25;;;14.50;72.90;;;;;;5005392;28;20045;-74
2023/09/26 06:35:51;;;;;;;12.68;7.93;;;14.50;73.00;;;;;;5030688;28;20053;-74
2023/09/26 06:38:19;;;;;;;11.38;8.25;;;14.50;73.10;;;;;;5002449;28;20111;-74
2023/09/26 06:41:00;;;;;;;12.00;8.48;;;14.50;73.00;;;;;;5014305;28;20262;-74
2023/09/26 06:43:27;;;;;;;13.13;8.07;;;14.50;73.20;;;;;;5005442;28;20056;-74
2023/09/26 06:45:54;;;;;;;11.30;7.85;;;14.50;73.10;;;;;;5018760;28;20061;-74
2023/09/26 06:48:22;;;;;;;11.98;8.18;;;14.50;73.20;;;;;;5007844;28;20157;-74
2023/09/26 06:50:50;;;;;;;10.18;7.82;;;14.50;73.30;;;;;;4975047;28;20121;-74
2023/09/26 06:53:17;;;;;;;10.77;7.68;;;14.50;73.40;;;;;;4990941;28;20047;-74
2023/09/26 06:55:44;;;;;;;11.53;7.90;;;14.50;73.40;;;;;;5010352;28;20057;-74
2023/09/26 06:58:13;;;;;;;11.88;8.07;;;14.50;73.40;;;;;;5009635;28;20074;-74
2023/09/26 07:00:40;;;;;;;12.07;8.32;;;14.50;73.50;;;;;;4991996;28;20064;-75
2023/09/26 07:03:07;;;;;;;12.45;7.50;;;14.60;73.70;;;;;;5022333;28;20172;-74
2023/09/26 07:05:34;;;;;;;10.82;7.88;;;14.50;73.90;;;;;;5008790;28;20098;-75
2023/09/26 07:08:02;;;;;;;9.90;7.50;;;14.60;74.00;;;;;;5017570;28;20051;-75
2023/09/26 07:10:29;;;;;;;10.45;7.88;;;14.60;74.10;;;;;;5021899;28;20446;-74
2023/09/26 07:12:56;;;;;;;12.82;8.77;;;14.60;74.30;;;;;;5015931;28;20059;-74
2023/09/26 07:15:28;;;;;;;12.35;7.85;;;14.60;74.20;;;;;;4991609;28;20045;-74
2023/09/26 07:17:55;;;;;;;10.75;7.78;;;14.60;74.40;;;;;;5024976;28;20595;-75
2023/09/26 07:20:23;;;;;;;11.93;7.43;;;14.60;74.50;;;;;;5021010;28;20567;-74
2023/09/26 07:22:50;;;;;;;12.93;8.07;;;14.70;74.70;;;;;;5012243;28;20144;-74
2023/09/26 07:25:18;;;;;;;10.85;7.70;;;14.70;75.00;;;;;;5000432;28;20050;-74
2023/09/26 07:27:45;;;;;;;11.45;7.82;;;14.70;75.00;;;;;;5020797;28;20077;-74
2023/09/26 07:30:12;;;;;;;11.60;7.80;;;14.70;74.90;;;;;;5014274;28;20050;-74
2023/09/26 07:32:40;;;;;;;11.57;7.83;;;14.70;75.10;;;;;;5004111;28;20602;-74
2023/09/26 07:35:07;;;;;;;10.70;6.95;;;14.80;75.30;;;;;;5001575;28;20049;-75
2023/09/26 07:37:34;;;;;;;10.32;7.72;;;14.80;75.50;;;;;;5005353;28;20056;-75
2023/09/26 07:40:02;;;;;;;10.68;7.43;;;14.80;75.60;;;;;;5017249;28;20057;-75
2023/09/26 07:42:30;;;;;;;11.70;7.93;;;14.80;75.60;;;;;;5001869;28;20038;-75
2023/09/26 07:44:58;;;;;;;10.63;7.30;;;14.90;75.70;;;;;;5017890;28;20057;-74
2023/09/26 07:47:24;;;;;;;11.40;7.80;;;14.90;75.70;;;;;;5000663;28;20047;-76
2023/09/26 07:49:51;;;;;;;13.00;8.00;;;14.90;75.70;;;;;;5015008;28;20061;-74
2023/09/26 07:52:19;;;;;;;10.93;7.70;;;14.90;75.80;;;;;;5007046;28;20133;-76
2023/09/26 07:54:46;;;;;;;11.20;7.50;;;15.00;75.50;;;;;;5022789;28;20475;-75
2023/09/26 07:57:13;;;;;;;11.20;7.33;;;15.00;75.50;;;;;;5016677;28;20080;-74
2023/09/26 07:59:41;;;;;;;12.10;7.72;;;15.00;75.50;;;;;;5002849;28;20055;-74
2023/09/26 08:02:08;;;;;;;9.75;7.45;;;15.00;75.70;;;;;;5002155;28;20519;-75
2023/09/26 08:04:35;;;;;;;12.20;7.47;;;15.10;75.70;;;;;;4996463;28;20439;-74
2023/09/26 08:07:02;;;;;;;11.25;7.80;;;15.10;75.60;;;;;;5013290;28;20532;-75
2023/09/26 08:09:29;;;;;;;10.23;7.07;;;15.20;75.60;;;;;;4995184;28;20054;-75
2023/09/26 08:11:56;;;;;;;12.00;7.40;;;15.20;75.50;;;;;;5017897;28;20051;-75
2023/09/26 08:14:22;;;;;;;10.02;7.47;;;15.20;75.50;;;;;;4998178;28;20054;-75
2023/09/26 08:16:51;;;;;;;11.13;7.22;;;15.30;75.50;;;;;;5004891;28;20572;-75
2023/09/26 08:19:18;;;;;;;10.32;7.30;;;15.30;75.60;;;;;;4975926;28;20052;-75
2023/09/26 08:21:45;;;;;;;10.57;6.77;;;15.40;75.30;;;;;;5025754;28;20390;-75
2023/09/26 08:24:12;;;;;;;10.32;7.13;;;15.40;75.50;;;;;;5007936;28;20081;-75
2023/09/26 08:26:39;;;;;;;9.18;6.93;;;15.50;75.50;;;;;;5021427;28;20157;-75
2023/09/26 08:29:06;;;;;;;11.25;7.05;;;15.50;75.50;;;;;;5017607;28;20134;-74
2023/09/26 08:31:35;;;;;;;12.05;7.43;;;15.50;75.50;;;;;;5025512;28;20538;-74
2023/09/26 08:34:04;;;;;;;10.87;7.10;;;15.60;75.50;;;;;;5019563;28;20050;-74
2023/09/26 08:36:32;;;;;;;12.20;7.15;;;15.60;75.60;;;;;;5010051;28;20424;-75
2023/09/26 08:38:59;;;;;;;10.63;7.22;;;15.60;75.70;;;;;;5021730;28;20054;-75
2023/09/26 08:41:26;;;;;;;12.15;7.70;;;15.60;75.60;;;;;;4985766;28;20359;-75
2023/09/26 08:43:53;;;;;;;11.70;7.43;;;15.70;75.60;;;;;;5005067;28;20053;-75
2023/09/26 08:46:21;;;;;;;12.07;7.83;;;15.80;75.50;;;;;;5003691;28;20093;-75
2023/09/26 08:48:49;;;;;;;11.00;7.72;;;15.80;75.40;;;;;;5004915;28;20050;-75
2023/09/26 08:51:17;;;;;;;12.07;7.07;;;15.80;75.30;;;;;;5013086;28;20149;-75
2023/09/26 08:53:44;;;;;;;11.10;7.25;;;15.80;75.20;;;;;;5004374;28;20050;-74
2023/09/26 08:56:11;;;;;;;12.13;7.05;;;15.90;75.30;;;;;;5000152;28;20129;-73
2023/09/26 08:58:42;;;;;;;11.97;7.20;;;16.00;75.20;;;;;;5006515;28;20670;-75
2023/09/26 09:01:09;;;;;;;11.10;7.28;;;16.00;75.20;;;;;;5024703;28;20076;-75
2023/09/26 09:03:36;;;;;;;10.43;6.75;;;16.00;75.20;;;;;;5002052;28;20046;-75
2023/09/26 09:06:03;;;;;;;10.73;7.20;;;16.00;75.30;;;;;;5022145;28;20083;-75
2023/09/26 09:08:33;;;;;;;10.32;7.03;;;16.10;75.50;;;;;;5008856;28;20046;-75
2023/09/26 09:10:59;;;;;;;10.93;6.70;;;16.10;75.40;;;;;;5015856;28;20046;-75
2023/09/26 09:13:28;;;;;;;11.30;7.40;;;16.20;75.40;;;;;;5013610;28;20124;-76
2023/09/26 09:16:09;;;;;;;10.32;6.70;;;16.20;75.10;;;;;;5008007;28;20050;-76
2023/09/26 09:18:36;;;;;;;11.00;6.85;;;16.20;75.00;;;;;;5010752;28;20042;-75
2023/09/26 09:21:21;;;;;;;10.13;7.35;;;16.30;75.00;;;;;;5021302;28;20069;-75
2023/09/26 09:23:50;;;;;;;9.30;6.40;;;16.40;75.20;;;;;;5018600;28;20054;-74
2023/09/26 09:26:20;;;;;;;10.00;6.20;;;16.40;75.40;;;;;;5006268;28;20046;-75
2023/09/26 09:28:47;;;;;;;9.90;6.60;;;16.50;75.60;;;;;;4990877;28;20050;-75
2023/09/26 09:31:16;;;;;;;9.70;6.70;;;16.50;75.50;;;;;;5007438;28;20656;-74
2023/09/26 09:33:46;;;;;;;10.65;7.05;;;16.60;75.30;;;;;;5024986;28;20058;-75
2023/09/26 09:36:14;;;;;;;10.93;6.80;;;16.70;75.00;;;;;;5001600;28;20074;-74
2023/09/26 09:38:41;;;;;;;13.05;7.05;;;16.80;74.60;;;;;;5006093;28;20057;-75
2023/09/26 09:41:10;;;;;;;11.25;6.88;;;16.90;74.00;;;;;;5022701;28;20046;-75
2023/09/26 09:43:37;;;;;;;9.52;6.40;;;16.90;73.90;;;;;;4995604;28;20137;-75
2023/09/26 09:46:08;;;;;;;9.93;6.15;;;17.00;74.10;;;;;;5000605;28;20061;-75
2023/09/26 09:48:45;;;;;;;10.27;6.37;;;17.10;73.80;;;;;;5003148;28;20607;-75
2023/09/26 09:51:13;;;;;;;10.30;6.65;;;17.20;73.50;;;;;;5003595;28;20512;-75
2023/09/26 09:53:45;;;;;;;12.02;6.32;;;17.30;73.60;;;;;;5013616;28;20499;-75
2023/09/26 09:56:18;;;;;;;10.13;6.20;;;17.40;73.70;;;;;;5026371;28;20706;-75
2023/09/26 09:58:49;;;;;;;11.38;6.60;;;17.50;73.80;;;;;;5003811;28;20432;-75
2023/09/26 10:01:20;;;;;;;11.87;6.10;;;17.50;73.90;;;;;;5004332;28;20064;-75
2023/09/26 10:03:48;;;;;;;11.52;6.72;;;17.60;73.80;;;;;;5016787;28;20061;-74
2023/09/26 10:06:15;;;;;;;10.20;6.45;;;17.70;73.30;;;;;;5018096;28;20054;-76
2023/09/26 10:08:42;;;;;;;10.23;6.63;;;17.80;72.60;;;;;;5018442;28;20062;-76
2023/09/26 10:11:11;;;;;;;12.68;6.80;;;17.80;72.20;;;;;;4996124;28;20731;-74
2023/09/26 10:13:39;;;;;;;10.87;6.30;;;17.80;71.80;;;;;;5008043;28;20085;-75
2023/09/26 10:16:11;;;;;;;10.32;6.15;;;17.90;71.60;;;;;;5017013;28;20050;-75
2023/09/26 10:18:40;;;;;;;9.27;6.38;;;18.00;71.70;;;;;;5024743;28;20676;-75
2023/09/26 10:21:23;;;;;;;11.77;6.57;;;18.00;71.70;;;;;;5008659;28;20158;-75
2023/09/26 10:24:26;;;;;;;10.70;6.65;;;18.00;71.70;;;;;;5021174;28;20622;-75
2023/09/26 10:26:53;;;;;;;12.33;6.77;;;18.10;71.50;;;;;;4989445;28;20591;-76
2023/09/26 10:29:25;;;;;;;10.50;6.43;;;18.10;71.40;;;;;;5018183;28;20060;-76
2023/09/26 10:31:56;;;;;;;11.07;6.60;;;18.20;71.30;;;;;;5016555;28;20112;-77
2023/09/26 10:34:24;;;;;;;10.18;6.55;;;18.20;71.30;;;;;;5020509;28;20135;-76
2023/09/26 10:36:51;;;;;;;9.57;6.70;;;18.20;71.10;;;;;;4996021;28;20069;-75
2023/09/26 10:39:18;;;;;;;10.07;6.40;;;18.30;71.10;;;;;;5021680;28;20061;-75
2023/09/26 10:41:45;;;;;;;9.30;6.32;;;18.30;71.00;;;;;;5026582;28;20076;-75
2023/09/26 10:44:12;;;;;;;11.50;7.28;;;18.40;70.90;;;;;;5020294;28;20592;-75
2023/09/26 10:46:40;;;;;;;11.32;7.75;;;18.40;70.70;;;;;;5006710;28;20559;-76
2023/09/26 10:49:07;;;;;;;9.98;7.03;;;18.40;70.50;;;;;;4983367;28;20046;-77
2023/09/26 10:51:34;;;;;;;11.67;6.80;;;18.50;70.60;;;;;;5019900;28;20064;-76
2023/09/26 10:54:02;;;;;;;14.48;7.55;;;18.50;70.60;;;;;;5008866;28;20089;-76
2023/09/26 10:56:29;;;;;;;10.73;6.65;;;18.50;70.70;;;;;;5022629;28;20046;-74
2023/09/26 10:58:56;;;;;;;9.75;6.68;;;18.60;70.50;;;;;;5023357;28;20144;-76
2023/09/26 11:01:37;;;;;;;9.35;6.55;;;18.60;70.80;;;;;;5016820;28;20054;-75
2023/09/26 11:04:06;;;;;;;10.13;7.17;;;18.60;71.00;;;;;;5014514;28;20055;-76
2023/09/26 11:06:34;;;;;;;8.75;6.25;;;18.70;70.90;;;;;;5016650;28;20046;-75
2023/09/26 11:09:01;;;;;;;9.30;5.43;;;18.70;70.50;;;;;;5022926;28;20062;-76
2023/09/26 11:11:28;;;;;;;11.55;6.65;;;18.80;70.40;;;;;;5007295;28;20058;-75
2023/09/26 11:13:55;;;;;;;8.32;5.10;;;18.80;70.50;;;;;;5005349;28;20479;-75
2023/09/26 11:16:22;;;;;;;9.60;6.60;;;18.90;70.60;;;;;;5000878;28;20046;-77
2023/09/26 11:18:54;;;;;;;10.27;7.13;;;18.90;70.80;;;;;;4993181;28;20305;-75
2023/09/26 11:21:22;;;;;;;14.18;7.47;;;19.00;71.10;;;;;;5023580;28;20718;-79
2023/09/26 11:23:49;;;;;;;10.45;7.35;;;19.10;70.80;;;;;;5021496;28;20058;-76
2023/09/26 11:26:17;;;;;;;15.70;11.10;;;19.10;70.80;;;;;;5015702;28;20049;-78
2023/09/26 11:28:44;;;;;;;14.93;8.83;;;19.20;70.80;;;;;;4989094;28;20134;-84
2023/09/26 11:31:13;;;;;;;12.15;8.07;;;19.20;70.80;;;;;;4998735;28;20046;-76
2023/09/26 11:33:40;;;;;;;12.07;7.70;;;19.30;70.70;;;;;;4990785;28;20504;-79
2023/09/26 11:36:07;;;;;;;11.88;8.00;;;19.30;70.60;;;;;;5010868;28;20141;-79
2023/09/26 11:38:46;;;;;;;11.60;8.02;;;19.40;70.30;;;;;;5026691;28;20050;-79
2023/09/26 11:41:13;;;;;;;9.83;7.07;;;19.40;70.00;;;;;;5023899;28;20528;-80
2023/09/26 11:43:42;;;;;;;10.40;7.03;;;19.40;70.10;;;;;;5008201;28;20185;-82
2023/09/26 11:46:09;;;;;;;16.58;11.07;;;19.50;70.20;;;;;;4989539;28;20058;-75
2023/09/26 11:48:36;;;;;;;145.25;82.38;;;19.50;70.20;;;;;;5006555;28;20053;-75
2023/09/26 11:51:03;;;;;;;25.90;14.02;;;19.50;70.40;;;;;;5006465;28;20050;-80
2023/09/26 11:53:30;;;;;;;11.23;7.53;;;19.60;70.30;;;;;;5014232;28;20141;-74
2023/09/26 11:56:00;;;;;;;11.65;8.07;;;19.70;70.30;;;;;;5000792;28;20074;-74
2023/09/26 11:58:27;;;;;;;9.75;7.07;;;19.70;70.20;;;;;;5022238;28;20081;-77
2023/09/26 12:00:54;;;;;;;10.20;6.88;;;19.70;69.90;;;;;;5026303;28;20555;-74
2023/09/26 12:03:21;;;;;;;10.07;7.07;;;19.70;69.80;;;;;;4988823;28;20102;-72
2023/09/26 12:05:48;;;;;;;11.63;7.57;;;19.80;69.80;;;;;;4988626;28;20561;-76
2023/09/26 12:08:16;;;;;;;10.73;7.90;;;19.90;69.90;;;;;;5006251;28;20136;-75
2023/09/26 12:10:43;;;;;;;9.40;6.75;;;19.90;70.00;;;;;;5008019;28;20058;-72
2023/09/26 12:13:11;;;;;;;9.32;6.82;;;20.00;70.00;;;;;;4994892;28;20055;-76
2023/09/26 12:15:38;;;;;;;9.80;7.22;;;20.00;69.90;;;;;;5006167;28;20046;-78
2023/09/26 12:18:06;;;;;;;11.30;6.87;;;20.00;69.70;;;;;;5001549;28;20046;-75
2023/09/26 12:20:34;;;;;;;14.77;10.13;;;20.10;69.20;;;;;;5009089;28;20050;-72
2023/09/26 12:23:02;;;;;;;12.90;10.18;;;20.10;68.70;;;;;;4989744;28;20517;-71
2023/09/26 12:25:30;;;;;;;11.50;6.93;;;20.10;68.60;;;;;;4990641;28;20520;-71
2023/09/26 12:27:56;;;;;;;10.40;7.20;;;20.20;68.60;;;;;;5002611;28;20197;-71
2023/09/26 12:30:25;;;;;;;9.57;6.80;;;20.20;68.70;;;;;;5004234;28;20050;-71
2023/09/26 12:32:52;;;;;;;9.35;6.55;;;20.30;68.80;;;;;;5008487;28;20054;-71
2023/09/26 12:35:19;;;;;;;11.13;7.35;;;20.30;69.10;;;;;;4992274;28;20125;-71
2023/09/26 12:37:46;;;;;;;8.02;5.95;;;20.30;69.40;;;;;;4992316;28;20053;-71
2023/09/26 12:40:13;;;;;;;10.13;7.22;;;20.40;69.70;;;;;;5018030;28;20101;-71
2023/09/26 12:42:41;;;;;;;10.17;6.63;;;20.50;69.80;;;;;;5015698;28;20594;-71
2023/09/26 12:45:09;;;;;;;8.90;5.90;;;20.50;69.60;;;;;;5010185;28;20038;-72